sensor_id;sensor_type;location;lat;lon;timestamp;temperature;humidity
20977;DHT22;10647;51.016;3.720;2023-02-01T00:00:19;8.80;99.90
20977;DHT22;10647;51.016;3.720;2023-02-01T00:02:47;8.80;99.90
20977;DHT22;10647;51.016;3.720;2023-02-01T00:05:14;8.70;99.90
20977;DHT22;10647;51.016;3.720;2023-02-01T00:07:42;8.60;99.90
20977;DHT22;10647;51.016;3.720;2023-02-01T00:10:10;8.60;99.90
20977;DHT22;10647;51.016;3.720;2023-02-01T00:12:37;8.60;99.90
20977;DHT22;10647;51.016;3.720;2023-02-01T00:15:05;8.50;99.90
20977;DHT22;10647;51.016;3.720;2023-02-01T00:17:33;8.60;99.90
20977;DHT22;10647;51.016;3.720;2023-02-01T00:20:01;8.50;99.90
20977;DHT22;10647;51.016;3.720;2023-02-01T00:22:29;8.50;99.90
20977;DHT22;10647;51.016;3.720;2023-02-01T00:24:56;8.50;99.90
20977;DHT22;10647;51.016;3.720;2023-02-01T00:27:24;8.50;99.90
20977;DHT22;10647;51.016;3.720;2023-02-01T00:29:53;8.50;99.90
20977;DHT22;10647;51.016;3.720;2023-02-01T00:32:21;8.50;99.90
20977;DHT22;10647;51.016;3.720;2023-02-01T00:34:49;8.40;99.90
20977;DHT22;10647;51.016;3.720;2023-02-01T00:37:17;8.40;99.90
20977;DHT22;10647;51.016;3.720;2023-02-01T00:39:44;8.30;99.90
20977;DHT22;10647;51.016;3.720;2023-02-01T00:42:12;8.20;99.90
20977;DHT22;10647;51.016;3.720;2023-02-01T00:44:39;8.20;99.90
20977;DHT22;10647;51.016;3.720;2023-02-01T00:47:07;8.10;99.90
20977;DHT22;10647;51.016;3.720;2023-02-01T00:49:34;8.10;99.90
20977;DHT22;10647;51.016;3.720;2023-02-01T00:52:02;8.00;99.90
20977;DHT22;10647;51.016;3.720;2023-02-01T00:54:29;8.00;99.90
20977;DHT22;10647;51.016;3.720;2023-02-01T00:56:57;7.90;99.90
20977;DHT22;10647;51.016;3.720;2023-02-01T00:59:24;7.90;99.90
20977;DHT22;10647;51.016;3.720;2023-02-01T01:01:52;7.90;99.90
20977;DHT22;10647;51.016;3.720;2023-02-01T01:04:19;7.90;99.90
20977;DHT22;10647;51.016;3.720;2023-02-01T01:06:47;7.90;99.90
20977;DHT22;10647;51.016;3.720;2023-02-01T01:09:14;7.80;99.90
20977;DHT22;10647;51.016;3.720;2023-02-01T01:11:42;7.80;99.90
20977;DHT22;10647;51.016;3.720;2023-02-01T01:14:10;7.80;99.90
20977;DHT22;10647;51.016;3.720;2023-02-01T01:16:38;7.70;99.90
20977;DHT22;10647;51.016;3.720;2023-02-01T01:19:05;7.70;99.90
20977;DHT22;10647;51.016;3.720;2023-02-01T01:21:33;7.60;99.90
20977;DHT22;10647;51.016;3.720;2023-02-01T01:24:00;7.60;99.90
20977;DHT22;10647;51.016;3.720;2023-02-01T01:26:29;7.50;99.90
20977;DHT22;10647;51.016;3.720;2023-02-01T01:28:58;7.60;99.90
20977;DHT22;10647;51.016;3.720;2023-02-01T01:31:27;7.50;99.90
20977;DHT22;10647;51.016;3.720;2023-02-01T01:33:56;7.50;99.90
20977;DHT22;10647;51.016;3.720;2023-02-01T01:36:26;7.50;99.90
20977;DHT22;10647;51.016;3.720;2023-02-01T01:38:54;7.50;99.90
20977;DHT22;10647;51.016;3.720;2023-02-01T01:41:24;7.50;99.90
20977;DHT22;10647;51.016;3.720;2023-02-01T01:44:04;7.50;99.90
20977;DHT22;10647;51.016;3.720;2023-02-01T01:49:22;7.50;99.90
20977;DHT22;10647;51.016;3.720;2023-02-01T01:51:55;7.60;99.90
20977;DHT22;10647;51.016;3.720;2023-02-01T01:57:23;7.50;99.90
20977;DHT22;10647;51.016;3.720;2023-02-01T01:59:47;7.50;99.90
20977;DHT22;10647;51.016;3.720;2023-02-01T02:02:16;7.60;99.90
20977;DHT22;10647;51.016;3.720;2023-02-01T02:04:44;7.70;99.90
20977;DHT22;10647;51.016;3.720;2023-02-01T02:07:16;7.70;99.90
20977;DHT22;10647;51.016;3.720;2023-02-01T02:09:44;7.70;99.90
20977;DHT22;10647;51.016;3.720;2023-02-01T02:12:12;7.60;99.90
20977;DHT22;10647;51.016;3.720;2023-02-01T02:14:40;7.50;99.90
20977;DHT22;10647;51.016;3.720;2023-02-01T02:23:14;7.40;99.90
20977;DHT22;10647;51.016;3.720;2023-02-01T02:25:55;7.40;99.90
20977;DHT22;10647;51.016;3.720;2023-02-01T02:34:24;7.40;99.90
20977;DHT22;10647;51.016;3.720;2023-02-01T02:40:11;7.40;99.90
20977;DHT22;10647;51.016;3.720;2023-02-01T02:42:58;7.40;99.90
20977;DHT22;10647;51.016;3.720;2023-02-01T02:51:38;7.40;99.90
20977;DHT22;10647;51.016;3.720;2023-02-01T02:54:29;7.50;99.90
20977;DHT22;10647;51.016;3.720;2023-02-01T02:57:30;7.50;99.90
20977;DHT22;10647;51.016;3.720;2023-02-01T03:00:17;7.50;99.90
20977;DHT22;10647;51.016;3.720;2023-02-01T03:03:04;7.50;99.90
20977;DHT22;10647;51.016;3.720;2023-02-01T03:05:50;7.50;99.90
20977;DHT22;10647;51.016;3.720;2023-02-01T03:11:14;7.40;99.90
20977;DHT22;10647;51.016;3.720;2023-02-01T03:13:56;7.40;99.90
20977;DHT22;10647;51.016;3.720;2023-02-01T03:16:50;7.50;99.90
20977;DHT22;10647;51.016;3.720;2023-02-01T03:19:37;7.50;99.90
20977;DHT22;10647;51.016;3.720;2023-02-01T03:22:06;7.50;99.90
20977;DHT22;10647;51.016;3.720;2023-02-01T03:24:48;7.50;99.90
20977;DHT22;10647;51.016;3.720;2023-02-01T03:27:34;7.50;99.90
20977;DHT22;10647;51.016;3.720;2023-02-01T03:32:40;7.50;99.90
20977;DHT22;10647;51.016;3.720;2023-02-01T03:35:39;7.60;99.90
20977;DHT22;10647;51.016;3.720;2023-02-01T03:38:11;7.50;99.90
20977;DHT22;10647;51.016;3.720;2023-02-01T03:41:06;7.50;99.90
20977;DHT22;10647;51.016;3.720;2023-02-01T03:43:33;7.50;99.90
20977;DHT22;10647;51.016;3.720;2023-02-01T03:46:30;7.50;99.90
20977;DHT22;10647;51.016;3.720;2023-02-01T03:48:57;7.50;99.90
20977;DHT22;10647;51.016;3.720;2023-02-01T03:51:31;7.40;99.90
20977;DHT22;10647;51.016;3.720;2023-02-01T03:54:01;7.40;99.90
20977;DHT22;10647;51.016;3.720;2023-02-01T03:56:48;7.40;99.90
20977;DHT22;10647;51.016;3.720;2023-02-01T03:59:17;7.40;99.90
20977;DHT22;10647;51.016;3.720;2023-02-01T04:01:45;7.30;99.90
20977;DHT22;10647;51.016;3.720;2023-02-01T04:04:13;7.30;99.90
20977;DHT22;10647;51.016;3.720;2023-02-01T04:06:42;7.30;99.90
20977;DHT22;10647;51.016;3.720;2023-02-01T04:09:09;7.30;99.90
20977;DHT22;10647;51.016;3.720;2023-02-01T04:11:37;7.20;99.90
20977;DHT22;10647;51.016;3.720;2023-02-01T04:14:04;7.20;99.90
20977;DHT22;10647;51.016;3.720;2023-02-01T04:16:32;7.20;99.90
20977;DHT22;10647;51.016;3.720;2023-02-01T04:19:00;7.20;99.90
20977;DHT22;10647;51.016;3.720;2023-02-01T04:21:28;7.20;99.90
20977;DHT22;10647;51.016;3.720;2023-02-01T04:23:56;7.20;99.90
20977;DHT22;10647;51.016;3.720;2023-02-01T04:26:23;7.10;99.90
20977;DHT22;10647;51.016;3.720;2023-02-01T04:28:51;7.10;99.90
20977;DHT22;10647;51.016;3.720;2023-02-01T04:31:19;7.10;99.90
20977;DHT22;10647;51.016;3.720;2023-02-01T04:33:55;7.10;99.90
20977;DHT22;10647;51.016;3.720;2023-02-01T04:36:24;7.10;99.90
20977;DHT22;10647;51.016;3.720;2023-02-01T04:38:52;7.00;99.90
20977;DHT22;10647;51.016;3.720;2023-02-01T04:41:19;7.00;99.90
20977;DHT22;10647;51.016;3.720;2023-02-01T04:43:49;7.00;99.90
20977;DHT22;10647;51.016;3.720;2023-02-01T04:46:19;6.90;99.90
20977;DHT22;10647;51.016;3.720;2023-02-01T04:48:47;7.00;99.90
20977;DHT22;10647;51.016;3.720;2023-02-01T04:51:15;6.90;99.90
20977;DHT22;10647;51.016;3.720;2023-02-01T04:53:44;7.00;99.90
20977;DHT22;10647;51.016;3.720;2023-02-01T04:56:12;7.00;99.90
20977;DHT22;10647;51.016;3.720;2023-02-01T04:58:40;6.90;99.90
20977;DHT22;10647;51.016;3.720;2023-02-01T05:01:07;7.00;99.90
20977;DHT22;10647;51.016;3.720;2023-02-01T05:03:36;6.90;99.90
20977;DHT22;10647;51.016;3.720;2023-02-01T05:06:03;6.90;99.90
20977;DHT22;10647;51.016;3.720;2023-02-01T05:08:32;6.80;99.90
20977;DHT22;10647;51.016;3.720;2023-02-01T05:11:00;6.80;99.90
20977;DHT22;10647;51.016;3.720;2023-02-01T05:13:29;6.90;99.90
20977;DHT22;10647;51.016;3.720;2023-02-01T05:16:15;6.80;99.90
20977;DHT22;10647;51.016;3.720;2023-02-01T05:18:43;6.90;99.90
20977;DHT22;10647;51.016;3.720;2023-02-01T05:21:10;6.90;99.90
20977;DHT22;10647;51.016;3.720;2023-02-01T05:23:41;6.90;99.90
20977;DHT22;10647;51.016;3.720;2023-02-01T05:26:26;6.80;99.90
20977;DHT22;10647;51.016;3.720;2023-02-01T05:28:54;6.90;99.90
20977;DHT22;10647;51.016;3.720;2023-02-01T05:31:23;6.90;99.90
20977;DHT22;10647;51.016;3.720;2023-02-01T05:33:51;6.90;99.90
20977;DHT22;10647;51.016;3.720;2023-02-01T05:36:18;6.90;99.90
20977;DHT22;10647;51.016;3.720;2023-02-01T05:38:46;6.90;99.90
20977;DHT22;10647;51.016;3.720;2023-02-01T05:41:17;6.80;99.90
20977;DHT22;10647;51.016;3.720;2023-02-01T05:43:44;6.70;99.90
20977;DHT22;10647;51.016;3.720;2023-02-01T05:46:12;6.70;99.90
20977;DHT22;10647;51.016;3.720;2023-02-01T05:48:42;6.60;99.90
20977;DHT22;10647;51.016;3.720;2023-02-01T05:51:11;6.60;99.90
20977;DHT22;10647;51.016;3.720;2023-02-01T05:53:39;6.40;99.90
20977;DHT22;10647;51.016;3.720;2023-02-01T05:56:06;6.50;99.90
20977;DHT22;10647;51.016;3.720;2023-02-01T05:58:34;6.50;99.90
20977;DHT22;10647;51.016;3.720;2023-02-01T06:01:03;6.50;99.90
20977;DHT22;10647;51.016;3.720;2023-02-01T06:03:30;6.50;99.90
20977;DHT22;10647;51.016;3.720;2023-02-01T06:05:58;6.60;99.90
20977;DHT22;10647;51.016;3.720;2023-02-01T06:08:28;6.50;99.90
20977;DHT22;10647;51.016;3.720;2023-02-01T06:11:06;6.50;99.90
20977;DHT22;10647;51.016;3.720;2023-02-01T06:13:34;6.50;99.90
20977;DHT22;10647;51.016;3.720;2023-02-01T06:16:05;6.40;99.90
20977;DHT22;10647;51.016;3.720;2023-02-01T06:18:35;6.40;99.90
20977;DHT22;10647;51.016;3.720;2023-02-01T06:21:03;6.50;99.90
20977;DHT22;10647;51.016;3.720;2023-02-01T06:23:30;6.50;99.90
20977;DHT22;10647;51.016;3.720;2023-02-01T06:26:14;6.50;99.90
20977;DHT22;10647;51.016;3.720;2023-02-01T06:28:46;6.60;99.90
20977;DHT22;10647;51.016;3.720;2023-02-01T06:31:14;6.50;99.90
20977;DHT22;10647;51.016;3.720;2023-02-01T06:33:48;6.60;99.90
20977;DHT22;10647;51.016;3.720;2023-02-01T06:36:15;6.50;99.90
20977;DHT22;10647;51.016;3.720;2023-02-01T06:38:46;6.50;99.90
20977;DHT22;10647;51.016;3.720;2023-02-01T06:41:15;6.40;99.90
20977;DHT22;10647;51.016;3.720;2023-02-01T06:43:43;6.50;99.90
20977;DHT22;10647;51.016;3.720;2023-02-01T06:46:13;6.50;99.90
20977;DHT22;10647;51.016;3.720;2023-02-01T06:48:46;6.60;99.90
20977;DHT22;10647;51.016;3.720;2023-02-01T06:51:24;6.50;99.90
20977;DHT22;10647;51.016;3.720;2023-02-01T06:53:48;6.60;99.90
20977;DHT22;10647;51.016;3.720;2023-02-01T06:56:23;6.50;99.90
20977;DHT22;10647;51.016;3.720;2023-02-01T06:58:51;6.60;99.90
20977;DHT22;10647;51.016;3.720;2023-02-01T07:01:19;6.60;99.90
20977;DHT22;10647;51.016;3.720;2023-02-01T07:03:49;6.70;99.90
20977;DHT22;10647;51.016;3.720;2023-02-01T07:06:20;6.70;99.90
20977;DHT22;10647;51.016;3.720;2023-02-01T07:08:53;6.60;99.90
20977;DHT22;10647;51.016;3.720;2023-02-01T07:11:27;6.70;99.90
20977;DHT22;10647;51.016;3.720;2023-02-01T07:13:55;6.70;99.90
20977;DHT22;10647;51.016;3.720;2023-02-01T07:16:23;6.70;99.90
20977;DHT22;10647;51.016;3.720;2023-02-01T07:18:53;6.80;99.90
20977;DHT22;10647;51.016;3.720;2023-02-01T07:21:20;6.70;99.90
20977;DHT22;10647;51.016;3.720;2023-02-01T07:23:50;6.70;99.90
20977;DHT22;10647;51.016;3.720;2023-02-01T07:26:18;6.80;99.90
20977;DHT22;10647;51.016;3.720;2023-02-01T07:28:45;6.90;99.90
20977;DHT22;10647;51.016;3.720;2023-02-01T07:31:16;6.80;99.90
20977;DHT22;10647;51.016;3.720;2023-02-01T07:33:45;6.90;99.90
20977;DHT22;10647;51.016;3.720;2023-02-01T07:36:15;6.90;99.90
20977;DHT22;10647;51.016;3.720;2023-02-01T07:38:42;7.00;99.90
20977;DHT22;10647;51.016;3.720;2023-02-01T07:41:10;7.00;99.90
20977;DHT22;10647;51.016;3.720;2023-02-01T07:43:38;7.00;99.90
20977;DHT22;10647;51.016;3.720;2023-02-01T07:46:07;7.10;99.90
20977;DHT22;10647;51.016;3.720;2023-02-01T07:48:35;7.00;99.90
20977;DHT22;10647;51.016;3.720;2023-02-01T07:51:05;7.20;99.90
20977;DHT22;10647;51.016;3.720;2023-02-01T07:53:35;7.30;99.90
20977;DHT22;10647;51.016;3.720;2023-02-01T07:56:16;7.40;99.90
20977;DHT22;10647;51.016;3.720;2023-02-01T07:59:03;7.60;99.90
20977;DHT22;10647;51.016;3.720;2023-02-01T08:01:34;7.60;99.90
20977;DHT22;10647;51.016;3.720;2023-02-01T08:04:02;7.70;99.90
20977;DHT22;10647;51.016;3.720;2023-02-01T08:06:32;7.70;99.90
20977;DHT22;10647;51.016;3.720;2023-02-01T08:09:01;7.80;99.90
20977;DHT22;10647;51.016;3.720;2023-02-01T08:11:28;7.90;99.90
20977;DHT22;10647;51.016;3.720;2023-02-01T08:13:57;7.90;99.90
20977;DHT22;10647;51.016;3.720;2023-02-01T08:16:25;8.10;99.90
20977;DHT22;10647;51.016;3.720;2023-02-01T08:18:53;8.10;99.90
20977;DHT22;10647;51.016;3.720;2023-02-01T08:21:28;8.20;99.90
20977;DHT22;10647;51.016;3.720;2023-02-01T08:24:00;8.20;99.90
20977;DHT22;10647;51.016;3.720;2023-02-01T08:26:30;8.30;99.90
20977;DHT22;10647;51.016;3.720;2023-02-01T08:29:03;8.20;99.90
20977;DHT22;10647;51.016;3.720;2023-02-01T08:31:31;8.30;99.90
20977;DHT22;10647;51.016;3.720;2023-02-01T08:34:01;8.40;99.90
20977;DHT22;10647;51.016;3.720;2023-02-01T08:36:31;8.50;99.90
20977;DHT22;10647;51.016;3.720;2023-02-01T08:38:59;8.50;99.90
20977;DHT22;10647;51.016;3.720;2023-02-01T08:41:33;8.50;99.90
20977;DHT22;10647;51.016;3.720;2023-02-01T08:44:02;8.60;99.90
20977;DHT22;10647;51.016;3.720;2023-02-01T08:46:31;8.60;99.90
20977;DHT22;10647;51.016;3.720;2023-02-01T08:49:00;8.60;99.90
20977;DHT22;10647;51.016;3.720;2023-02-01T08:51:31;8.70;99.90
20977;DHT22;10647;51.016;3.720;2023-02-01T08:53:59;8.80;99.90
20977;DHT22;10647;51.016;3.720;2023-02-01T08:56:37;8.90;99.90
20977;DHT22;10647;51.016;3.720;2023-02-01T08:59:07;9.00;99.90
20977;DHT22;10647;51.016;3.720;2023-02-01T09:01:36;9.20;99.90
20977;DHT22;10647;51.016;3.720;2023-02-01T09:04:04;9.30;99.90
20977;DHT22;10647;51.016;3.720;2023-02-01T09:06:33;9.40;99.90
20977;DHT22;10647;51.016;3.720;2023-02-01T09:09:00;9.50;99.90
20977;DHT22;10647;51.016;3.720;2023-02-01T09:11:31;9.70;99.90
20977;DHT22;10647;51.016;3.720;2023-02-01T09:13:58;9.90;99.90
20977;DHT22;10647;51.016;3.720;2023-02-01T09:16:27;10.00;99.90
20977;DHT22;10647;51.016;3.720;2023-02-01T09:18:55;10.10;99.90
20977;DHT22;10647;51.016;3.720;2023-02-01T09:21:24;10.10;99.90
20977;DHT22;10647;51.016;3.720;2023-02-01T09:26:39;10.10;99.90
20977;DHT22;10647;51.016;3.720;2023-02-01T09:29:07;10.10;99.90
20977;DHT22;10647;51.016;3.720;2023-02-01T09:31:43;10.20;99.90
20977;DHT22;10647;51.016;3.720;2023-02-01T09:34:10;10.10;99.90
20977;DHT22;10647;51.016;3.720;2023-02-01T09:36:38;10.20;99.90
20977;DHT22;10647;51.016;3.720;2023-02-01T09:39:08;10.10;99.90
20977;DHT22;10647;51.016;3.720;2023-02-01T09:41:50;10.20;99.90
20977;DHT22;10647;51.016;3.720;2023-02-01T09:47:27;10.20;99.90
20977;DHT22;10647;51.016;3.720;2023-02-01T09:50:16;10.30;99.90
20977;DHT22;10647;51.016;3.720;2023-02-01T09:55:50;10.60;99.90
20977;DHT22;10647;51.016;3.720;2023-02-01T09:58:44;10.60;99.90
20977;DHT22;10647;51.016;3.720;2023-02-01T10:01:22;10.80;99.90
20977;DHT22;10647;51.016;3.720;2023-02-01T10:04:12;11.00;99.90
20977;DHT22;10647;51.016;3.720;2023-02-01T10:09:52;11.20;99.90
20977;DHT22;10647;51.016;3.720;2023-02-01T10:26:25;11.20;99.90
20977;DHT22;10647;51.016;3.720;2023-02-01T10:29:02;11.30;99.90
20977;DHT22;10647;51.016;3.720;2023-02-01T10:31:35;11.40;99.90
20977;DHT22;10647;51.016;3.720;2023-02-01T10:34:13;11.40;99.90
20977;DHT22;10647;51.016;3.720;2023-02-01T10:37:12;11.50;99.90
20977;DHT22;10647;51.016;3.720;2023-02-01T10:39:37;11.40;99.90
20977;DHT22;10647;51.016;3.720;2023-02-01T10:42:08;11.30;99.90
20977;DHT22;10647;51.016;3.720;2023-02-01T10:44:38;11.30;99.90
20977;DHT22;10647;51.016;3.720;2023-02-01T10:47:09;11.30;99.90
20977;DHT22;10647;51.016;3.720;2023-02-01T10:58:31;11.40;99.90
20977;DHT22;10647;51.016;3.720;2023-02-01T11:01:01;11.50;99.90
20977;DHT22;10647;51.016;3.720;2023-02-01T11:03:53;11.70;99.90
20977;DHT22;10647;51.016;3.720;2023-02-01T11:06:44;12.10;99.90
20977;DHT22;10647;51.016;3.720;2023-02-01T11:09:30;12.30;99.90
20977;DHT22;10647;51.016;3.720;2023-02-01T11:12:01;12.40;99.90
20977;DHT22;10647;51.016;3.720;2023-02-01T11:14:40;12.50;99.90
20977;DHT22;10647;51.016;3.720;2023-02-01T11:20:13;12.90;99.90
20977;DHT22;10647;51.016;3.720;2023-02-01T11:23:02;13.00;99.90
20977;DHT22;10647;51.016;3.720;2023-02-01T11:25:29;13.10;99.90
20977;DHT22;10647;51.016;3.720;2023-02-01T11:27:57;13.00;99.90
20977;DHT22;10647;51.016;3.720;2023-02-01T11:30:45;13.00;99.90
20977;DHT22;10647;51.016;3.720;2023-02-01T11:36:14;13.20;99.90
20977;DHT22;10647;51.016;3.720;2023-02-01T11:38:51;13.10;99.90
20977;DHT22;10647;51.016;3.720;2023-02-01T11:41:24;13.10;99.90
20977;DHT22;10647;51.016;3.720;2023-02-01T11:43:53;13.30;99.90
20977;DHT22;10647;51.016;3.720;2023-02-01T11:46:23;13.70;99.90
20977;DHT22;10647;51.016;3.720;2023-02-01T11:48:56;13.80;99.90
20977;DHT22;10647;51.016;3.720;2023-02-01T11:54:37;13.70;99.90
20977;DHT22;10647;51.016;3.720;2023-02-01T12:09:34;13.50;99.90
20977;DHT22;10647;51.016;3.720;2023-02-01T12:11:58;13.80;99.90
20977;DHT22;10647;51.016;3.720;2023-02-01T12:23:22;13.70;99.90
20977;DHT22;10647;51.016;3.720;2023-02-01T12:25:55;13.70;99.90
20977;DHT22;10647;51.016;3.720;2023-02-01T12:28:26;13.70;99.90
20977;DHT22;10647;51.016;3.720;2023-02-01T12:37:01;14.10;99.90
20977;DHT22;10647;51.016;3.720;2023-02-01T12:42:27;14.20;99.90
20977;DHT22;10647;51.016;3.720;2023-02-01T12:50:57;13.50;99.90
20977;DHT22;10647;51.016;3.720;2023-02-01T12:53:38;13.50;99.90
20977;DHT22;10647;51.016;3.720;2023-02-01T12:56:14;13.30;99.90
20977;DHT22;10647;51.016;3.720;2023-02-01T12:58:52;13.30;99.90
20977;DHT22;10647;51.016;3.720;2023-02-01T13:01:39;13.30;99.90
20977;DHT22;10647;51.016;3.720;2023-02-01T13:12:37;14.70;99.90
20977;DHT22;10647;51.016;3.720;2023-02-01T13:15:14;15.40;99.90
20977;DHT22;10647;51.016;3.720;2023-02-01T13:17:42;15.80;99.90
20977;DHT22;10647;51.016;3.720;2023-02-01T13:23:15;17.30;99.90
20977;DHT22;10647;51.016;3.720;2023-02-01T13:25:50;18.10;99.90
20977;DHT22;10647;51.016;3.720;2023-02-01T13:28:40;18.70;99.90
20977;DHT22;10647;51.016;3.720;2023-02-01T13:45:31;20.20;99.70
20977;DHT22;10647;51.016;3.720;2023-02-01T13:48:04;20.30;98.10
20977;DHT22;10647;51.016;3.720;2023-02-01T13:50:37;20.20;97.70
20977;DHT22;10647;51.016;3.720;2023-02-01T13:53:23;20.50;97.40
20977;DHT22;10647;51.016;3.720;2023-02-01T13:56:00;20.40;97.00
20977;DHT22;10647;51.016;3.720;2023-02-01T13:58:37;19.40;96.70
20977;DHT22;10647;51.016;3.720;2023-02-01T14:01:31;19.50;97.10
20977;DHT22;10647;51.016;3.720;2023-02-01T14:03:59;19.70;97.40
20977;DHT22;10647;51.016;3.720;2023-02-01T14:09:15;18.30;97.80
20977;DHT22;10647;51.016;3.720;2023-02-01T14:11:52;17.60;98.40
20977;DHT22;10647;51.016;3.720;2023-02-01T14:19:31;16.20;99.90
20977;DHT22;10647;51.016;3.720;2023-02-01T14:22:01;15.80;99.90
20977;DHT22;10647;51.016;3.720;2023-02-01T14:24:32;15.50;99.90
20977;DHT22;10647;51.016;3.720;2023-02-01T14:29:49;14.70;99.90
20977;DHT22;10647;51.016;3.720;2023-02-01T14:32:30;14.40;99.90
20977;DHT22;10647;51.016;3.720;2023-02-01T14:34:56;14.20;99.90
20977;DHT22;10647;51.016;3.720;2023-02-01T14:37:31;13.90;99.90
20977;DHT22;10647;51.016;3.720;2023-02-01T14:42:53;13.80;99.90
20977;DHT22;10647;51.016;3.720;2023-02-01T14:50:41;13.20;99.90
20977;DHT22;10647;51.016;3.720;2023-02-01T14:53:17;13.10;99.90
20977;DHT22;10647;51.016;3.720;2023-02-01T14:56:08;13.10;99.90
20977;DHT22;10647;51.016;3.720;2023-02-01T14:58:47;12.90;99.90
20977;DHT22;10647;51.016;3.720;2023-02-01T15:04:16;12.90;99.90
20977;DHT22;10647;51.016;3.720;2023-02-01T15:06:51;12.80;99.90
20977;DHT22;10647;51.016;3.720;2023-02-01T15:09:32;12.70;99.90
20977;DHT22;10647;51.016;3.720;2023-02-01T15:12:08;12.70;99.90
20977;DHT22;10647;51.016;3.720;2023-02-01T15:14:36;12.70;99.90
20977;DHT22;10647;51.016;3.720;2023-02-01T15:17:17;12.60;99.90
20977;DHT22;10647;51.016;3.720;2023-02-01T15:20:13;12.60;99.90
20977;DHT22;10647;51.016;3.720;2023-02-01T15:22:42;12.70;99.90
20977;DHT22;10647;51.016;3.720;2023-02-01T15:25:23;12.70;99.90
20977;DHT22;10647;51.016;3.720;2023-02-01T15:27:51;12.60;99.90
20977;DHT22;10647;51.016;3.720;2023-02-01T15:30:24;12.50;99.90
20977;DHT22;10647;51.016;3.720;2023-02-01T15:35:42;12.30;99.90
20977;DHT22;10647;51.016;3.720;2023-02-01T15:41:00;12.10;99.90
20977;DHT22;10647;51.016;3.720;2023-02-01T15:43:29;12.20;99.90
20977;DHT22;10647;51.016;3.720;2023-02-01T15:46:10;12.20;99.90
20977;DHT22;10647;51.016;3.720;2023-02-01T15:51:29;12.00;99.90
20977;DHT22;10647;51.016;3.720;2023-02-01T15:54:04;12.00;99.90
20977;DHT22;10647;51.016;3.720;2023-02-01T15:56:36;12.00;99.90
20977;DHT22;10647;51.016;3.720;2023-02-01T15:59:18;11.90;99.90
20977;DHT22;10647;51.016;3.720;2023-02-01T16:04:28;11.90;99.90
20977;DHT22;10647;51.016;3.720;2023-02-01T16:07:01;11.90;99.90
20977;DHT22;10647;51.016;3.720;2023-02-01T16:09:55;11.90;99.90
20977;DHT22;10647;51.016;3.720;2023-02-01T16:15:15;11.80;99.90
20977;DHT22;10647;51.016;3.720;2023-02-01T16:17:42;11.80;99.90
20977;DHT22;10647;51.016;3.720;2023-02-01T16:20:12;11.80;99.90
20977;DHT22;10647;51.016;3.720;2023-02-01T16:22:40;11.80;99.90
20977;DHT22;10647;51.016;3.720;2023-02-01T16:25:08;11.80;99.90
20977;DHT22;10647;51.016;3.720;2023-02-01T16:27:42;11.70;99.90
20977;DHT22;10647;51.016;3.720;2023-02-01T16:30:10;11.70;99.90
20977;DHT22;10647;51.016;3.720;2023-02-01T16:32:38;11.70;99.90
20977;DHT22;10647;51.016;3.720;2023-02-01T16:35:25;11.60;99.90
20977;DHT22;10647;51.016;3.720;2023-02-01T16:37:48;11.60;99.90
20977;DHT22;10647;51.016;3.720;2023-02-01T16:40:17;11.50;99.90
20977;DHT22;10647;51.016;3.720;2023-02-01T16:42:49;11.50;99.90
20977;DHT22;10647;51.016;3.720;2023-02-01T16:45:17;11.40;99.90
20977;DHT22;10647;51.016;3.720;2023-02-01T16:47:47;11.30;99.90
20977;DHT22;10647;51.016;3.720;2023-02-01T16:50:18;11.40;99.90
20977;DHT22;10647;51.016;3.720;2023-02-01T16:52:47;11.30;99.90
20977;DHT22;10647;51.016;3.720;2023-02-01T16:55:17;11.40;99.90
20977;DHT22;10647;51.016;3.720;2023-02-01T16:57:44;11.40;99.90
20977;DHT22;10647;51.016;3.720;2023-02-01T17:00:13;11.40;99.90
20977;DHT22;10647;51.016;3.720;2023-02-01T17:02:42;11.30;99.90
20977;DHT22;10647;51.016;3.720;2023-02-01T17:05:10;11.30;99.90
20977;DHT22;10647;51.016;3.720;2023-02-01T17:07:39;11.30;99.90
20977;DHT22;10647;51.016;3.720;2023-02-01T17:10:15;11.30;99.90
20977;DHT22;10647;51.016;3.720;2023-02-01T17:12:39;11.40;99.90
20977;DHT22;10647;51.016;3.720;2023-02-01T17:15:08;11.20;99.90
20977;DHT22;10647;51.016;3.720;2023-02-01T17:17:37;11.30;99.90
20977;DHT22;10647;51.016;3.720;2023-02-01T17:20:07;11.30;99.90
20977;DHT22;10647;51.016;3.720;2023-02-01T17:22:34;11.30;99.90
20977;DHT22;10647;51.016;3.720;2023-02-01T17:25:02;11.30;99.90
20977;DHT22;10647;51.016;3.720;2023-02-01T17:27:31;11.30;99.90
20977;DHT22;10647;51.016;3.720;2023-02-01T17:29:59;11.30;99.90
20977;DHT22;10647;51.016;3.720;2023-02-01T17:32:28;11.30;99.90
20977;DHT22;10647;51.016;3.720;2023-02-01T17:34:56;11.30;99.90
20977;DHT22;10647;51.016;3.720;2023-02-01T17:37:29;11.30;99.90
20977;DHT22;10647;51.016;3.720;2023-02-01T17:39:57;11.20;99.90
20977;DHT22;10647;51.016;3.720;2023-02-01T17:42:26;11.20;99.90
20977;DHT22;10647;51.016;3.720;2023-02-01T17:45:20;11.20;99.90
20977;DHT22;10647;51.016;3.720;2023-02-01T17:47:47;11.20;99.90
20977;DHT22;10647;51.016;3.720;2023-02-01T17:50:15;11.20;99.90
20977;DHT22;10647;51.016;3.720;2023-02-01T17:52:43;11.20;99.90
20977;DHT22;10647;51.016;3.720;2023-02-01T17:55:15;11.20;99.90
20977;DHT22;10647;51.016;3.720;2023-02-01T17:57:44;11.30;99.90
20977;DHT22;10647;51.016;3.720;2023-02-01T18:00:12;11.20;99.90
20977;DHT22;10647;51.016;3.720;2023-02-01T18:02:40;11.30;99.90
20977;DHT22;10647;51.016;3.720;2023-02-01T18:10:57;11.30;99.90
20977;DHT22;10647;51.016;3.720;2023-02-01T18:13:28;11.20;99.90
20977;DHT22;10647;51.016;3.720;2023-02-01T18:15:57;11.20;99.90
20977;DHT22;10647;51.016;3.720;2023-02-01T18:18:25;11.20;99.90
20977;DHT22;10647;51.016;3.720;2023-02-01T18:20:54;11.20;99.90
20977;DHT22;10647;51.016;3.720;2023-02-01T18:23:23;11.20;99.90
20977;DHT22;10647;51.016;3.720;2023-02-01T18:25:51;11.20;99.90
20977;DHT22;10647;51.016;3.720;2023-02-01T18:28:19;11.10;99.90
20977;DHT22;10647;51.016;3.720;2023-02-01T18:30:48;11.00;99.90
20977;DHT22;10647;51.016;3.720;2023-02-01T18:33:19;10.90;99.90
20977;DHT22;10647;51.016;3.720;2023-02-01T18:35:47;11.00;99.90
20977;DHT22;10647;51.016;3.720;2023-02-01T18:38:15;11.10;99.90
20977;DHT22;10647;51.016;3.720;2023-02-01T18:40:50;11.10;99.90
20977;DHT22;10647;51.016;3.720;2023-02-01T18:43:21;11.00;99.90
20977;DHT22;10647;51.016;3.720;2023-02-01T18:45:48;11.00;99.90
20977;DHT22;10647;51.016;3.720;2023-02-01T18:48:16;10.90;99.90
20977;DHT22;10647;51.016;3.720;2023-02-01T18:50:46;11.10;99.90
20977;DHT22;10647;51.016;3.720;2023-02-01T18:53:16;11.10;99.90
20977;DHT22;10647;51.016;3.720;2023-02-01T18:55:50;11.10;99.90
20977;DHT22;10647;51.016;3.720;2023-02-01T18:58:16;11.10;99.90
20977;DHT22;10647;51.016;3.720;2023-02-01T19:00:45;11.10;99.90
20977;DHT22;10647;51.016;3.720;2023-02-01T19:03:14;11.00;99.90
20977;DHT22;10647;51.016;3.720;2023-02-01T19:05:42;11.00;99.90
20977;DHT22;10647;51.016;3.720;2023-02-01T19:08:09;11.00;99.90